Time;durP1;ratioP1;P1;durP2;ratioP2;P2;SDS_P1;SDS_P2;PMS_P1;PMS_P2;Temp;Humidity;BMP_temperature;BMP_pressure;BME280_temperature;BME280_humidity;BME280_pressure;Samples;Min_cycle;Max_cycle;Signal;HPM_P1;HPM_P2
2022/01/11 00:01:08;;;;;;;27.33;15.23;;;4.70;84.10;;;;;;5055077;28;20202;-57
2022/01/11 00:03:37;;;;;;;26.02;15.45;;;4.60;84.00;;;;;;5055029;28;20233;-56
2022/01/11 00:06:17;;;;;;;30.10;17.95;;;4.50;84.40;;;;;;5055029;28;20248;-58
2022/01/11 00:08:45;;;;;;;24.83;15.63;;;4.60;84.50;;;;;;5054788;28;20710;-56
2022/01/11 00:11:12;;;;;;;25.73;15.45;;;4.60;84.30;;;;;;5054788;28;20376;-58
2022/01/11 00:13:42;;;;;;;33.38;16.00;;;4.50;84.50;;;;;;5053417;28;20212;-57
2022/01/11 00:16:13;;;;;;;27.35;16.10;;;4.50;84.80;;;;;;5054713;28;20212;-56
2022/01/11 00:18:40;;;;;;;29.55;15.20;;;4.40;84.70;;;;;;5054651;28;20205;-56
2022/01/11 00:21:07;;;;;;;29.38;15.27;;;4.40;85.10;;;;;;5054897;28;20205;-56
2022/01/11 00:26:19;;;;;;;25.02;15.65;;;4.30;85.10;;;;;;5054226;28;20719;-56
2022/01/11 00:28:47;;;;;;;33.42;16.80;;;4.40;85.10;;;;;;5053034;28;20221;-58
2022/01/11 00:31:14;;;;;;;27.67;14.80;;;4.40;85.00;;;;;;5054564;28;20205;-56
2022/01/11 00:33:45;;;;;;;34.00;18.15;;;4.40;85.00;;;;;;5054473;28;20205;-56
2022/01/11 00:36:12;;;;;;;33.35;17.85;;;4.50;84.70;;;;;;5054413;28;20197;-56
2022/01/11 00:38:41;;;;;;;30.60;16.75;;;4.60;84.70;;;;;;5054456;28;20232;-56
2022/01/11 00:41:10;;;;;;;25.30;16.00;;;4.60;84.40;;;;;;5054334;28;20690;-56
2022/01/11 00:43:38;;;;;;;28.15;16.38;;;4.60;84.30;;;;;;5052904;28;20296;-56
2022/01/11 00:46:07;;;;;;;24.92;15.57;;;4.60;84.10;;;;;;5054292;28;20209;-58
2022/01/11 00:48:39;;;;;;;31.20;16.90;;;4.40;84.40;;;;;;5054148;28;20223;-58
2022/01/11 00:51:07;;;;;;;24.83;14.88;;;4.40;84.60;;;;;;5054223;28;20210;-58
2022/01/11 00:53:34;;;;;;;28.33;16.02;;;4.50;84.50;;;;;;5054078;28;20292;-57
2022/01/11 00:56:00;;;;;;;34.97;17.00;;;4.40;84.40;;;;;;5054132;28;20208;-56
2022/01/11 00:58:27;;;;;;;30.92;16.80;;;4.30;84.50;;;;;;5052632;28;20212;-59
2022/01/11 01:00:55;;;;;;;29.17;16.48;;;4.30;84.70;;;;;;5054012;28;20219;-55
2022/01/11 01:03:24;;;;;;;26.38;16.30;;;4.30;84.90;;;;;;5053941;28;20226;-57
2022/01/11 01:05:51;;;;;;;26.90;16.83;;;4.20;85.40;;;;;;5053808;28;20674;-60
2022/01/11 01:08:19;;;;;;;26.10;15.73;;;4.20;85.40;;;;;;5053799;28;20551;-56
2022/01/11 01:10:47;;;;;;;25.75;16.10;;;4.20;85.50;;;;;;5053564;28;20332;-55
2022/01/11 01:13:17;;;;;;;27.38;16.13;;;4.20;85.50;;;;;;5052174;28;20620;-55
2022/01/11 01:15:47;;;;;;;27.25;15.32;;;4.20;85.60;;;;;;5054465;28;20323;-56
2022/01/11 01:18:15;;;;;;;25.95;16.20;;;4.20;85.90;;;;;;5053739;28;20292;-62
2022/01/11 01:20:45;;;;;;;32.97;18.05;;;4.20;85.90;;;;;;5053084;28;20566;-55
2022/01/11 01:23:13;;;;;;;30.23;16.42;;;4.30;85.70;;;;;;5053346;28;20587;-55
2022/01/11 01:25:42;;;;;;;32.25;16.33;;;4.30;85.60;;;;;;5052708;28;20204;-56
2022/01/11 01:28:09;;;;;;;35.03;20.17;;;4.30;85.50;;;;;;5052091;28;20543;-58
2022/01/11 01:30:38;;;;;;;35.50;18.15;;;4.40;85.70;;;;;;5053259;28;20229;-55
2022/01/11 01:33:05;;;;;;;29.58;16.05;;;4.60;85.30;;;;;;5053156;28;20206;-57
2022/01/11 01:35:38;;;;;;;28.83;16.05;;;4.70;84.80;;;;;;5053337;28;20201;-55
2022/01/11 01:38:07;;;;;;;28.75;16.77;;;4.60;84.40;;;;;;5052628;28;20571;-56
2022/01/11 01:40:39;;;;;;;29.35;17.88;;;4.50;84.70;;;;;;5053290;28;20201;-58
2022/01/11 01:43:08;;;;;;;32.22;17.85;;;4.50;84.50;;;;;;5051837;28;20717;-57
2022/01/11 01:45:36;;;;;;;32.45;17.65;;;4.30;85.20;;;;;;5053197;28;20201;-56
2022/01/11 01:48:03;;;;;;;28.67;16.60;;;4.20;85.60;;;;;;5053085;28;20295;-56
2022/01/11 01:50:31;;;;;;;31.30;18.10;;;4.20;85.70;;;;;;5053032;28;20320;-56
2022/01/11 01:53:01;;;;;;;31.65;17.00;;;4.30;86.00;;;;;;5053238;28;20205;-57
2022/01/11 01:55:29;;;;;;;27.02;16.50;;;4.40;85.80;;;;;;5052815;28;20205;-57
2022/01/11 01:57:56;;;;;;;28.00;16.08;;;4.50;85.50;;;;;;5051678;28;20208;-56
2022/01/11 02:00:25;;;;;;;27.27;16.30;;;4.60;85.20;;;;;;5053002;28;20535;-57
2022/01/11 02:03:02;;;;;;;27.33;16.80;;;4.70;85.00;;;;;;5052765;28;20248;-59
2022/01/11 02:05:29;;;;;;;29.98;15.65;;;4.70;84.80;;;;;;5052878;28;20307;-58
2022/01/11 02:07:56;;;;;;;28.92;16.30;;;4.70;84.50;;;;;;5052745;28;20303;-59
2022/01/11 02:10:23;;;;;;;32.53;17.40;;;4.50;84.10;;;;;;5052805;28;20315;-59
2022/01/11 02:12:52;;;;;;;25.02;16.30;;;4.40;85.00;;;;;;5051563;28;20284;-57
2022/01/11 02:15:19;;;;;;;30.52;16.80;;;4.50;85.10;;;;;;5052740;28;20690;-57
2022/01/11 02:17:46;;;;;;;29.50;16.83;;;4.60;85.00;;;;;;5052555;28;20197;-58
2022/01/11 02:20:15;;;;;;;27.05;15.80;;;4.60;84.50;;;;;;5053004;28;20201;-58
2022/01/11 02:22:42;;;;;;;28.85;16.40;;;4.60;84.60;;;;;;5052675;28;20213;-58
2022/01/11 02:25:10;;;;;;;28.00;18.05;;;4.60;84.50;;;;;;5052662;28;20287;-60
2022/01/11 02:27:37;;;;;;;29.75;17.02;;;4.50;84.70;;;;;;5051426;28;20212;-60
2022/01/11 02:30:04;;;;;;;34.50;18.52;;;4.50;84.60;;;;;;5052631;28;20418;-60
2022/01/11 02:32:31;;;;;;;34.55;19.40;;;4.50;84.60;;;;;;5052499;28;20708;-59
2022/01/11 02:34:58;;;;;;;29.42;17.13;;;4.60;84.80;;;;;;5052507;28;20256;-59
2022/01/11 02:37:26;;;;;;;32.65;18.23;;;4.60;84.40;;;;;;5052439;28;20664;-60
2022/01/11 02:39:53;;;;;;;37.08;20.00;;;4.60;84.40;;;;;;5052610;28;20292;-59
2022/01/11 02:42:21;;;;;;;36.45;19.38;;;4.70;84.20;;;;;;5051279;28;20205;-59
2022/01/11 02:44:48;;;;;;;36.38;18.63;;;4.70;84.00;;;;;;5052514;28;20224;-59
2022/01/11 02:47:15;;;;;;;35.85;18.80;;;4.70;84.00;;;;;;5052544;28;20201;-58
2022/01/11 02:49:42;;;;;;;35.92;18.63;;;4.70;83.90;;;;;;5054852;28;20650;-58
2022/01/11 02:52:09;;;;;;;34.60;17.98;;;4.70;83.80;;;;;;5056367;28;20296;-57
2022/01/11 02:54:37;;;;;;;34.15;19.10;;;4.70;83.70;;;;;;5056380;28;20300;-58
2022/01/11 02:57:04;;;;;;;31.73;18.10;;;4.70;83.70;;;;;;5054939;28;20205;-57
2022/01/11 02:59:31;;;;;;;34.30;18.48;;;4.70;83.70;;;;;;5056402;28;20284;-56
2022/01/11 03:01:58;;;;;;;35.00;20.55;;;4.60;83.50;;;;;;5056077;28;20221;-58
2022/01/11 03:04:28;;;;;;;37.70;18.50;;;4.40;84.00;;;;;;5055858;28;20740;-59
2022/01/11 03:06:56;;;;;;;39.17;19.55;;;4.40;84.60;;;;;;5056257;28;20676;-60
2022/01/11 03:09:25;;;;;;;33.97;19.42;;;4.40;84.60;;;;;;5055987;28;20664;-57
2022/01/11 03:11:53;;;;;;;37.10;20.33;;;4.50;84.40;;;;;;5054603;28;20266;-56
2022/01/11 03:14:20;;;;;;;37.55;18.90;;;4.50;84.30;;;;;;5055981;28;20296;-58
2022/01/11 03:16:46;;;;;;;38.63;19.65;;;4.50;84.00;;;;;;5055833;28;20293;-57
2022/01/11 03:19:13;;;;;;;33.88;20.27;;;4.60;84.10;;;;;;5055789;28;20292;-57
2022/01/11 03:21:40;;;;;;;38.40;20.60;;;4.60;83.80;;;;;;5055870;28;20561;-56
2022/01/11 03:24:07;;;;;;;41.75;21.42;;;4.50;83.90;;;;;;5055753;28;20727;-56
2022/01/11 03:26:34;;;;;;;37.72;18.98;;;4.60;84.00;;;;;;5055707;28;20213;-56
2022/01/11 03:29:02;;;;;;;37.22;19.52;;;4.60;83.90;;;;;;5054516;28;20205;-56
2022/01/11 03:31:29;;;;;;;32.25;18.42;;;4.60;83.80;;;;;;5055512;28;20241;-56
2022/01/11 03:33:56;;;;;;;33.17;18.92;;;4.60;83.70;;;;;;5055524;28;20255;-56
2022/01/11 03:36:23;;;;;;;31.75;18.70;;;4.60;83.90;;;;;;5055824;28;20284;-57
2022/01/11 03:38:49;;;;;;;35.20;20.80;;;4.60;83.90;;;;;;5055495;28;20244;-56
2022/01/11 03:41:16;;;;;;;34.65;18.05;;;4.40;84.00;;;;;;5055570;28;20215;-58
2022/01/11 03:43:43;;;;;;;33.72;19.70;;;4.30;84.70;;;;;;5054158;28;20636;-58
2022/01/11 03:46:11;;;;;;;33.50;18.67;;;4.30;85.00;;;;;;5055330;28;20208;-59
2022/01/11 03:48:38;;;;;;;40.63;19.55;;;4.40;85.20;;;;;;5055289;28;20237;-58
2022/01/11 03:51:05;;;;;;;37.47;20.50;;;4.30;84.80;;;;;;5055209;28;20320;-60
2022/01/11 03:53:44;;;;;;;33.90;18.23;;;4.40;85.00;;;;;;5055383;28;20201;-60
2022/01/11 03:56:21;;;;;;;34.90;20.00;;;4.30;84.60;;;;;;5055213;28;20232;-60
2022/01/11 03:58:50;;;;;;;35.55;19.80;;;4.20;84.90;;;;;;5053952;28;20200;-60
2022/01/11 04:01:18;;;;;;;39.47;19.95;;;4.10;85.60;;;;;;5054249;28;20228;-60
2022/01/11 04:03:46;;;;;;;32.00;17.80;;;4.20;85.40;;;;;;5055050;28;20211;-60
2022/01/11 04:06:16;;;;;;;37.20;18.38;;;4.10;85.50;;;;;;5055000;28;20206;-60
2022/01/11 04:08:43;;;;;;;30.38;17.95;;;4.10;85.70;;;;;;5055081;28;20201;-60
2022/01/11 04:11:11;;;;;;;33.97;17.65;;;4.10;85.70;;;;;;5054550;28;20249;-59
2022/01/11 04:13:38;;;;;;;28.35;17.02;;;4.20;85.60;;;;;;5053657;28;20201;-60
2022/01/11 04:16:05;;;;;;;32.53;16.65;;;4.30;85.40;;;;;;5054815;28;20212;-60
2022/01/11 04:18:34;;;;;;;31.13;17.10;;;4.40;85.10;;;;;;5054669;28;20201;-60
2022/01/11 04:21:00;;;;;;;35.63;17.20;;;4.30;84.80;;;;;;5054790;28;20201;-60
2022/01/11 04:23:27;;;;;;;32.70;17.98;;;4.30;85.20;;;;;;5054604;28;20208;-60
2022/01/11 04:25:54;;;;;;;32.72;18.48;;;4.30;85.20;;;;;;5054583;28;20693;-60
2022/01/11 04:28:23;;;;;;;28.08;16.75;;;4.40;85.20;;;;;;5053263;28;20212;-60
2022/01/11 04:30:50;;;;;;;36.65;18.90;;;4.50;84.80;;;;;;5054512;28;20229;-59
2022/01/11 04:33:17;;;;;;;30.70;18.30;;;4.40;84.90;;;;;;5054345;28;20207;-60
2022/01/11 04:35:48;;;;;;;31.67;17.67;;;4.50;84.70;;;;;;5054498;28;20559;-57
2022/01/11 04:38:16;;;;;;;36.47;18.63;;;4.40;84.40;;;;;;5054421;28;20553;-60
2022/01/11 04:40:43;;;;;;;33.90;18.63;;;4.20;84.50;;;;;;5054500;28;20221;-60
2022/01/11 04:43:10;;;;;;;33.53;18.55;;;4.20;84.90;;;;;;5053094;28;20567;-59
2022/01/11 04:45:37;;;;;;;35.45;18.33;;;4.10;85.50;;;;;;5054344;28;20296;-60
2022/01/11 04:48:05;;;;;;;30.27;16.98;;;4.10;85.70;;;;;;5054144;28;20217;-62
2022/01/11 04:50:32;;;;;;;35.00;18.58;;;4.20;85.50;;;;;;5054040;28;20605;-60
2022/01/11 04:53:02;;;;;;;33.65;17.48;;;4.20;85.50;;;;;;5054093;28;20205;-60
2022/01/11 04:55:29;;;;;;;35.25;18.58;;;4.30;85.60;;;;;;5054003;28;20668;-60
2022/01/11 04:57:56;;;;;;;29.85;17.23;;;4.40;85.30;;;;;;5052754;28;20291;-60
2022/01/11 05:00:24;;;;;;;36.80;19.30;;;4.40;85.10;;;;;;5054096;28;20205;-60
2022/01/11 05:02:51;;;;;;;42.83;20.73;;;4.50;85.00;;;;;;5053774;28;20679;-60
2022/01/11 05:05:18;;;;;;;36.35;18.75;;;4.50;84.60;;;;;;5053844;28;20208;-61
2022/01/11 05:07:47;;;;;;;35.10;17.83;;;4.50;84.60;;;;;;5053907;28;20636;-60
2022/01/11 05:10:15;;;;;;;40.28;20.83;;;4.50;84.70;;;;;;5053797;28;20647;-60
2022/01/11 05:12:42;;;;;;;27.65;17.48;;;4.50;84.80;;;;;;5052365;28;20229;-61
2022/01/11 05:15:11;;;;;;;33.83;17.73;;;4.50;84.80;;;;;;5053757;28;20678;-60
2022/01/11 05:17:39;;;;;;;31.52;18.30;;;4.60;84.60;;;;;;5053696;28;20212;-60
2022/01/11 05:20:07;;;;;;;35.83;20.25;;;4.50;84.40;;;;;;5053524;28;20560;-61
2022/01/11 05:22:34;;;;;;;34.25;18.80;;;4.30;85.20;;;;;;5053615;28;20197;-60
2022/01/11 05:25:01;;;;;;;35.72;18.48;;;4.20;85.50;;;;;;5053346;28;20212;-60
2022/01/11 05:27:30;;;;;;;36.22;19.70;;;4.10;86.10;;;;;;5052087;28;20211;-60
2022/01/11 05:29:57;;;;;;;36.17;20.70;;;4.10;86.30;;;;;;5053519;28;20202;-61
2022/01/11 05:32:24;;;;;;;37.22;18.98;;;4.20;86.40;;;;;;5053337;28;20296;-59
2022/01/11 05:34:51;;;;;;;37.13;18.30;;;4.30;86.20;;;;;;5053181;28;20205;-60
2022/01/11 05:37:18;;;;;;;31.77;18.50;;;4.30;85.70;;;;;;5053409;28;20326;-60
2022/01/11 05:39:45;;;;;;;31.00;18.60;;;4.30;85.70;;;;;;5053196;28;20240;-59
2022/01/11 05:42:12;;;;;;;32.97;20.13;;;4.30;85.90;;;;;;5051964;28;20296;-60
2022/01/11 05:44:40;;;;;;;34.15;18.67;;;4.30;85.60;;;;;;5053386;28;20555;-60
2022/01/11 05:47:07;;;;;;;35.80;19.83;;;4.30;85.50;;;;;;5052974;28;20289;-59
2022/01/11 05:49:34;;;;;;;33.67;19.80;;;4.30;85.90;;;;;;5052947;28;20733;-60
2022/01/11 05:52:01;;;;;;;29.05;16.98;;;4.30;86.00;;;;;;5052914;28;20324;-60
2022/01/11 05:54:27;;;;;;;40.05;23.08;;;4.20;86.20;;;;;;5053003;28;20296;-60
2022/01/11 05:56:54;;;;;;;41.03;20.60;;;4.20;86.10;;;;;;5051617;28;20223;-60
2022/01/11 05:59:21;;;;;;;34.63;17.48;;;4.30;86.20;;;;;;5052931;28;20208;-60
2022/01/11 06:01:49;;;;;;;27.40;17.33;;;4.30;86.00;;;;;;5052752;28;20308;-60
2022/01/11 06:04:16;;;;;;;33.13;18.48;;;4.30;85.70;;;;;;5052725;28;20201;-60
2022/01/11 06:06:43;;;;;;;37.55;18.58;;;4.20;85.90;;;;;;5052972;28;20566;-60
2022/01/11 06:09:10;;;;;;;30.70;19.05;;;4.10;85.90;;;;;;5052994;28;20223;-59
2022/01/11 06:11:37;;;;;;;35.67;19.20;;;4.20;86.30;;;;;;5052570;28;20236;-60
2022/01/11 06:14:04;;;;;;;30.95;17.15;;;4.30;86.10;;;;;;5051816;28;20196;-60
2022/01/11 06:16:31;;;;;;;34.25;17.77;;;4.30;85.30;;;;;;5052677;28;20205;-57
2022/01/11 06:19:00;;;;;;;31.40;18.50;;;4.30;85.60;;;;;;5052600;28;20258;-60
2022/01/11 06:21:27;;;;;;;32.35;20.08;;;4.10;85.70;;;;;;5052570;28;20202;-59
2022/01/11 06:23:54;;;;;;;35.70;19.25;;;4.10;86.10;;;;;;5055868;28;20197;-60
2022/01/11 06:26:21;;;;;;;38.15;17.85;;;4.20;86.10;;;;;;5059312;28;20642;-58
2022/01/11 06:28:48;;;;;;;31.92;17.38;;;4.30;85.90;;;;;;5057852;28;20617;-60
2022/01/11 06:31:15;;;;;;;33.78;18.08;;;4.40;85.60;;;;;;5059116;28;20240;-60
2022/01/11 06:33:42;;;;;;;33.28;17.65;;;4.40;85.20;;;;;;5059283;28;20296;-60
2022/01/11 06:36:11;;;;;;;31.48;16.77;;;4.40;85.40;;;;;;5059275;28;20691;-61
2022/01/11 06:38:39;;;;;;;29.27;17.08;;;4.50;85.20;;;;;;5059126;28;20204;-60
2022/01/11 06:41:05;;;;;;;36.63;20.75;;;4.30;84.60;;;;;;5059242;28;20201;-60
2022/01/11 06:43:32;;;;;;;35.63;18.90;;;4.20;85.50;;;;;;5057889;28;20205;-60
2022/01/11 06:45:59;;;;;;;38.55;19.73;;;4.20;85.60;;;;;;5059107;28;20296;-60
2022/01/11 06:48:26;;;;;;;36.10;19.10;;;4.10;85.50;;;;;;5059058;28;20212;-61
2022/01/11 06:50:53;;;;;;;36.00;19.42;;;4.10;86.00;;;;;;5059053;28;20253;-59
2022/01/11 06:53:22;;;;;;;27.05;16.95;;;4.10;85.90;;;;;;5059109;28;20207;-60
2022/01/11 06:55:49;;;;;;;35.50;20.10;;;4.20;85.90;;;;;;5059000;28;20205;-60
2022/01/11 06:58:16;;;;;;;33.85;19.80;;;4.20;85.90;;;;;;5057741;28;20209;-60
2022/01/11 07:00:43;;;;;;;34.10;17.92;;;4.30;85.70;;;;;;5059049;28;20251;-60
2022/01/11 07:03:10;;;;;;;28.30;16.60;;;4.40;85.50;;;;;;5058790;28;20205;-59
2022/01/11 07:05:38;;;;;;;27.10;16.65;;;4.40;85.20;;;;;;5059043;28;20211;-60
2022/01/11 07:08:05;;;;;;;29.48;16.50;;;4.40;85.00;;;;;;5059197;28;20201;-60
2022/01/11 07:10:33;;;;;;;26.55;16.30;;;4.40;85.00;;;;;;5058591;28;20209;-61
2022/01/11 07:13:02;;;;;;;35.17;18.05;;;4.40;85.10;;;;;;5057589;28;20668;-61
2022/01/11 07:15:29;;;;;;;36.67;18.67;;;4.50;84.90;;;;;;5058788;28;20571;-60
2022/01/11 07:17:56;;;;;;;33.65;18.80;;;4.40;84.60;;;;;;5058940;28;20205;-60
2022/01/11 07:20:23;;;;;;;25.58;16.98;;;4.40;84.40;;;;;;5058903;28;20300;-60
2022/01/11 07:22:50;;;;;;;30.10;16.60;;;4.40;84.90;;;;;;5058808;28;20205;-61
2022/01/11 07:25:17;;;;;;;33.30;18.10;;;4.40;85.00;;;;;;5058630;28;20201;-60
2022/01/11 07:27:45;;;;;;;28.38;15.27;;;4.50;85.00;;;;;;5057589;28;20205;-59
2022/01/11 07:30:12;;;;;;;31.95;17.00;;;4.50;84.60;;;;;;5058879;28;20254;-57
2022/01/11 07:32:39;;;;;;;38.45;19.63;;;4.50;84.70;;;;;;5058602;28;20279;-58
2022/01/11 07:35:07;;;;;;;29.55;16.77;;;4.40;84.40;;;;;;5056187;28;20208;-59
2022/01/11 07:37:34;;;;;;;28.60;15.35;;;4.50;84.80;;;;;;5055402;28;20209;-59
2022/01/11 07:40:01;;;;;;;31.08;17.05;;;4.50;84.80;;;;;;5055558;28;20292;-58
2022/01/11 07:42:28;;;;;;;26.35;15.13;;;4.50;84.50;;;;;;5054193;28;20209;-58
2022/01/11 07:44:56;;;;;;;30.27;16.13;;;4.60;84.70;;;;;;5055477;28;21277;-60
2022/01/11 07:47:23;;;;;;;27.33;13.95;;;4.50;84.10;;;;;;5055358;28;20201;-60
2022/01/11 07:49:50;;;;;;;25.30;14.48;;;4.50;84.60;;;;;;5055169;28;20229;-59
2022/01/11 07:52:17;;;;;;;24.83;14.18;;;4.50;84.10;;;;;;5054971;28;20228;-56
2022/01/11 07:54:44;;;;;;;23.58;14.57;;;4.50;84.60;;;;;;5055270;28;20243;-57
2022/01/11 07:57:11;;;;;;;22.92;13.60;;;4.60;84.50;;;;;;5053864;28;20293;-56
2022/01/11 07:59:38;;;;;;;22.90;13.48;;;4.60;83.90;;;;;;5055124;28;20742;-58
2022/01/11 08:02:06;;;;;;;25.40;14.85;;;4.60;84.10;;;;;;5055058;28;20197;-57
2022/01/11 08:04:33;;;;;;;23.50;13.93;;;4.60;84.30;;;;;;5054954;28;20211;-57
2022/01/11 08:07:01;;;;;;;29.00;15.30;;;4.60;84.20;;;;;;5054988;28;20297;-59
2022/01/11 08:09:28;;;;;;;27.60;17.17;;;4.70;84.10;;;;;;5054983;28;20220;-59
2022/01/11 08:11:58;;;;;;;26.80;18.02;;;4.70;84.10;;;;;;5053546;28;20244;-58
2022/01/11 08:14:25;;;;;;;28.00;16.45;;;4.70;83.70;;;;;;5054789;28;20223;-56
2022/01/11 08:16:52;;;;;;;28.50;17.17;;;4.60;83.50;;;;;;5055043;28;20299;-58
2022/01/11 08:19:24;;;;;;;29.23;17.85;;;4.40;84.30;;;;;;5054562;28;20276;-57
2022/01/11 08:21:52;;;;;;;27.27;16.40;;;4.50;84.70;;;;;;5054837;28;20206;-60
2022/01/11 08:24:21;;;;;;;31.05;17.83;;;4.50;84.50;;;;;;5054617;28;20208;-60
2022/01/11 08:26:48;;;;;;;29.60;17.20;;;4.50;84.70;;;;;;5053451;28;20206;-57
2022/01/11 08:29:17;;;;;;;29.48;18.67;;;4.60;84.50;;;;;;5054691;28;20573;-60
2022/01/11 08:31:44;;;;;;;32.67;18.98;;;4.50;84.50;;;;;;5054433;28;20604;-59
2022/01/11 08:34:14;;;;;;;27.95;17.27;;;4.50;84.80;;;;;;5054505;28;20209;-60
2022/01/11 08:36:43;;;;;;;36.40;19.50;;;4.50;84.90;;;;;;5054521;28;20244;-58
2022/01/11 08:39:11;;;;;;;34.15;19.67;;;4.60;84.80;;;;;;5054324;28;20610;-60
2022/01/11 08:41:38;;;;;;;35.08;20.35;;;4.60;84.50;;;;;;5054394;28;20296;-60
2022/01/11 08:44:06;;;;;;;34.05;19.77;;;4.60;84.50;;;;;;5053470;28;20205;-60
2022/01/11 08:46:33;;;;;;;31.70;19.73;;;4.70;84.50;;;;;;5053834;28;20241;-60
2022/01/11 08:49:01;;;;;;;39.53;20.58;;;4.70;84.50;;;;;;5054189;28;20283;-60
2022/01/11 08:51:28;;;;;;;33.45;19.60;;;4.70;84.40;;;;;;5054081;28;20244;-60
2022/01/11 08:53:56;;;;;;;36.42;20.10;;;4.80;84.50;;;;;;5054168;28;20212;-58
2022/01/11 08:56:23;;;;;;;39.22;22.05;;;4.60;84.70;;;;;;5054004;28;20206;-61
2022/01/11 08:58:50;;;;;;;30.20;19.73;;;4.60;85.00;;;;;;5052612;28;20291;-58
2022/01/11 09:01:17;;;;;;;36.22;20.92;;;4.70;84.90;;;;;;5053918;28;20216;-59
2022/01/11 09:03:44;;;;;;;40.00;21.52;;;4.70;84.90;;;;;;5053829;28;20235;-60
2022/01/11 09:06:10;;;;;;;43.45;22.63;;;4.80;84.90;;;;;;5053911;28;20233;-60
2022/01/11 09:08:38;;;;;;;43.53;22.80;;;4.90;84.60;;;;;;5053919;28;20296;-60
2022/01/11 09:11:07;;;;;;;37.00;20.92;;;4.90;84.40;;;;;;5053805;28;20225;-60
2022/01/11 09:13:36;;;;;;;32.40;19.40;;;5.00;84.30;;;;;;5052420;28;20208;-57
2022/01/11 09:16:04;;;;;;;30.17;19.15;;;5.00;84.00;;;;;;5053914;28;20209;-57
2022/01/11 09:18:31;;;;;;;29.02;18.10;;;5.00;83.40;;;;;;5053698;28;20637;-60
2022/01/11 09:21:00;;;;;;;35.90;20.85;;;4.90;84.10;;;;;;5053489;28;20237;-59
2022/01/11 09:23:27;;;;;;;28.40;18.27;;;4.90;84.40;;;;;;5053646;28;20629;-57
2022/01/11 09:25:54;;;;;;;31.27;18.88;;;4.90;84.70;;;;;;5053417;28;20556;-59
2022/01/11 09:28:23;;;;;;;27.75;18.05;;;4.90;84.00;;;;;;5052287;28;20208;-60
2022/01/11 09:30:50;;;;;;;24.33;17.08;;;4.90;83.70;;;;;;5053406;28;20212;-58
2022/01/11 09:33:17;;;;;;;30.48;18.40;;;4.80;84.30;;;;;;5053169;28;20237;-60
2022/01/11 09:35:45;;;;;;;33.00;19.08;;;4.90;84.50;;;;;;5053327;28;20198;-60
2022/01/11 09:38:12;;;;;;;30.83;17.73;;;5.00;84.30;;;;;;5053495;28;20296;-58
2022/01/11 09:40:39;;;;;;;31.38;18.10;;;5.10;83.90;;;;;;5053124;28;20652;-60
2022/01/11 09:43:06;;;;;;;28.00;18.38;;;5.20;83.40;;;;;;5052042;28;20202;-60
2022/01/11 09:45:35;;;;;;;27.67;16.50;;;5.20;83.30;;;;;;5053219;28;20197;-60
2022/01/11 09:48:02;;;;;;;30.48;18.52;;;5.20;82.90;;;;;;5053264;28;20225;-60
2022/01/11 09:50:29;;;;;;;28.20;17.75;;;5.00;83.40;;;;;;5052990;28;20205;-59
2022/01/11 09:52:56;;;;;;;32.40;18.27;;;5.10;83.70;;;;;;5053101;28;20328;-60
2022/01/11 09:55:23;;;;;;;25.45;16.90;;;5.20;83.80;;;;;;5052798;28;20206;-59
2022/01/11 09:57:50;;;;;;;25.25;15.50;;;5.20;83.30;;;;;;5051477;28;20240;-59
2022/01/11 10:00:17;;;;;;;30.73;16.25;;;5.30;83.20;;;;;;5052846;28;20229;-59
2022/01/11 10:02:46;;;;;;;27.13;15.82;;;5.40;83.00;;;;;;5052940;28;20206;-59
2022/01/11 10:05:14;;;;;;;23.40;15.93;;;5.50;83.10;;;;;;5052818;28;20219;-59
2022/01/11 10:07:42;;;;;;;29.70;16.58;;;5.40;82.70;;;;;;5052786;28;20296;-57
2022/01/11 10:10:13;;;;;;;30.48;16.73;;;5.50;82.90;;;;;;5052898;28;20201;-59
2022/01/11 10:12:49;;;;;;;31.13;18.20;;;5.50;82.70;;;;;;5051305;28;20240;-56
2022/01/11 10:15:25;;;;;;;32.85;18.50;;;5.50;82.40;;;;;;5052731;28;20205;-56
2022/01/11 10:17:53;;;;;;;26.30;16.52;;;5.50;82.60;;;;;;5052820;28;20299;-59
2022/01/11 10:20:23;;;;;;;24.73;15.30;;;5.60;83.10;;;;;;5052525;28;20651;-56
2022/01/11 10:22:52;;;;;;;28.08;16.27;;;5.70;82.60;;;;;;5052616;28;20211;-60
2022/01/11 10:25:19;;;;;;;31.35;18.67;;;5.70;82.30;;;;;;5052620;28;20243;-57
2022/01/11 10:27:55;;;;;;;33.25;18.95;;;5.80;82.40;;;;;;5051430;28;20624;-57
2022/01/11 10:30:23;;;;;;;27.67;16.40;;;5.80;82.30;;;;;;5052620;28;20211;-56
2022/01/11 10:32:53;;;;;;;28.75;17.33;;;5.90;82.20;;;;;;5052454;28;20229;-60
2022/01/11 10:35:23;;;;;;;27.27;18.30;;;5.90;82.00;;;;;;5052472;28;20205;-60
2022/01/11 10:37:52;;;;;;;26.67;17.38;;;6.00;81.50;;;;;;5052622;28;20201;-60
2022/01/11 10:40:23;;;;;;;28.23;17.80;;;5.80;81.50;;;;;;5052458;28;20212;-60
2022/01/11 10:42:52;;;;;;;28.40;17.42;;;5.80;81.90;;;;;;5051167;28;20656;-59
2022/01/11 10:45:21;;;;;;;23.10;15.20;;;5.90;81.90;;;;;;5052280;28;20207;-59
2022/01/11 10:47:49;;;;;;;22.85;15.82;;;5.90;81.30;;;;;;5052411;28;20301;-58
2022/01/11 10:50:22;;;;;;;27.48;17.88;;;6.00;81.60;;;;;;5052221;28;20255;-60
2022/01/11 10:52:49;;;;;;;26.45;16.17;;;6.00;81.70;;;;;;5052350;28;20232;-60
2022/01/11 10:55:19;;;;;;;24.83;16.80;;;6.10;81.60;;;;;;5052583;28;20224;-60
2022/01/11 10:57:51;;;;;;;26.70;15.55;;;6.00;81.10;;;;;;5051073;28;20289;-60
2022/01/11 11:00:25;;;;;;;29.38;18.38;;;6.10;81.40;;;;;;5052407;28;20233;-59
2022/01/11 11:03:01;;;;;;;27.15;17.05;;;5.80;80.70;;;;;;5052340;28;20205;-60
2022/01/11 11:05:35;;;;;;;28.60;18.13;;;5.80;81.70;;;;;;5052142;28;20660;-61
2022/01/11 11:08:05;;;;;;;22.63;15.75;;;6.00;81.70;;;;;;5052321;28;20205;-59
2022/01/11 11:10:42;;;;;;;24.27;17.13;;;5.90;80.60;;;;;;5054395;28;20568;-59
2022/01/11 11:13:16;;;;;;;28.35;17.27;;;5.90;80.60;;;;;;5054814;28;20573;-60
2022/01/11 11:15:43;;;;;;;24.10;16.70;;;5.90;81.00;;;;;;5056066;28;20292;-60
2022/01/11 11:18:30;;;;;;;22.42;14.60;;;6.10;81.20;;;;;;5056178;28;20208;-59
2022/01/11 11:21:13;;;;;;;23.40;13.75;;;6.10;81.00;;;;;;5055756;28;20609;-59
2022/01/11 11:23:40;;;;;;;24.92;16.25;;;6.30;79.90;;;;;;5055853;28;20292;-58
2022/01/11 11:26:07;;;;;;;22.20;14.95;;;6.40;80.60;;;;;;5055943;28;20295;-60
2022/01/11 11:28:35;;;;;;;25.45;16.13;;;6.50;78.70;;;;;;5054555;28;20567;-59
2022/01/11 11:31:03;;;;;;;23.25;14.80;;;6.60;79.90;;;;;;5055659;28;20529;-60
2022/01/11 11:33:30;;;;;;;29.10;20.30;;;6.60;78.70;;;;;;5055518;28;20229;-58
2022/01/11 11:35:58;;;;;;;26.05;15.23;;;6.80;79.70;;;;;;5055495;28;20660;-59
2022/01/11 11:38:31;;;;;;;19.70;13.50;;;7.40;78.40;;;;;;5055689;28;20229;-60
2022/01/11 11:41:01;;;;;;;16.10;12.75;;;7.90;77.80;;;;;;5055573;28;20205;-58
2022/01/11 11:43:28;;;;;;;16.30;13.20;;;8.10;76.80;;;;;;5054158;28;20664;-59
2022/01/11 11:45:55;;;;;;;18.52;14.20;;;8.10;75.50;;;;;;5055318;28;20296;-60
2022/01/11 11:48:24;;;;;;;22.85;14.27;;;8.00;76.00;;;;;;5055413;28;20300;-60
2022/01/11 11:50:53;;;;;;;17.42;12.60;;;7.80;73.20;;;;;;5055323;28;20212;-59
2022/01/11 11:53:24;;;;;;;15.90;12.77;;;7.50;73.90;;;;;;5055251;28;20324;-59
2022/01/11 11:55:52;;;;;;;23.58;14.68;;;7.30;73.10;;;;;;5055209;28;20248;-59
2022/01/11 11:58:22;;;;;;;19.55;14.23;;;7.00;73.70;;;;;;5053694;28;20700;-60
2022/01/11 12:00:51;;;;;;;18.75;14.43;;;6.80;75.00;;;;;;5055067;28;20232;-58
2022/01/11 12:03:22;;;;;;;20.60;14.32;;;6.60;74.90;;;;;;5055089;28;20251;-59
2022/01/11 12:05:50;;;;;;;17.05;13.18;;;6.60;76.50;;;;;;5054883;28;20255;-59
2022/01/11 12:08:32;;;;;;;17.67;13.32;;;6.70;76.20;;;;;;5055100;28;20206;-61
2022/01/11 12:11:02;;;;;;;15.77;13.63;;;6.60;75.00;;;;;;5054705;28;20316;-59
2022/01/11 12:13:45;;;;;;;17.60;13.55;;;6.70;76.10;;;;;;5053555;28;20229;-60
2022/01/11 12:16:39;;;;;;;16.77;13.10;;;6.60;74.70;;;;;;5054889;28;20734;-59
2022/01/11 12:19:25;;;;;;;15.10;11.05;;;6.50;75.60;;;;;;5054726;28;20652;-60
2022/01/11 12:22:20;;;;;;;11.13;9.98;;;6.70;75.90;;;;;;5054058;28;20202;-60
2022/01/11 12:24:50;;;;;;;12.07;9.75;;;6.70;73.40;;;;;;5054776;28;20202;-60
2022/01/11 12:27:19;;;;;;;13.90;11.07;;;6.80;71.10;;;;;;5053427;28;20304;-59
2022/01/11 12:30:06;;;;;;;11.02;10.02;;;6.60;73.00;;;;;;5054590;28;20275;-59
2022/01/11 12:32:38;;;;;;;9.93;8.95;;;6.30;69.50;;;;;;5054546;28;20786;-60
2022/01/11 12:35:09;;;;;;;10.60;9.75;;;6.00;72.60;;;;;;5054598;28;20593;-58
2022/01/11 12:37:40;;;;;;;10.27;8.70;;;6.00;73.70;;;;;;5054496;28;20201;-58
2022/01/11 12:40:26;;;;;;;8.65;7.75;;;6.00;72.20;;;;;;5054297;28;20201;-58
2022/01/11 12:43:03;;;;;;;8.60;7.90;;;5.80;71.10;;;;;;5053157;28;20212;-59
2022/01/11 12:46:00;;;;;;;9.73;8.90;;;5.90;71.30;;;;;;5054348;28;20259;-58
2022/01/11 12:49:01;;;;;;;9.48;8.80;;;5.70;71.80;;;;;;5054210;28;20208;-59